sensor_id;sensor_type;location;lat;lon;timestamp;temperature;humidity
52181;DHT22;38158;53.338;6.514;2023-03-11T00:00:30;2.50;99.90
52181;DHT22;38158;53.338;6.514;2023-03-11T00:02:58;1.30;99.90
52181;DHT22;38158;53.338;6.514;2023-03-11T00:05:36;1.30;99.90
52181;DHT22;38158;53.338;6.514;2023-03-11T00:08:03;1.30;99.90
52181;DHT22;38158;53.338;6.514;2023-03-11T00:10:32;1.30;99.90
52181;DHT22;38158;53.338;6.514;2023-03-11T00:12:59;2.20;99.90
52181;DHT22;38158;53.338;6.514;2023-03-11T00:15:26;2.50;99.90
52181;DHT22;38158;53.338;6.514;2023-03-11T00:17:52;1.30;99.90
52181;DHT22;38158;53.338;6.514;2023-03-11T00:20:24;1.70;99.90
52181;DHT22;38158;53.338;6.514;2023-03-11T00:22:50;1.30;99.90
52181;DHT22;38158;53.338;6.514;2023-03-11T00:25:17;1.30;99.90
52181;DHT22;38158;53.338;6.514;2023-03-11T00:27:43;1.40;99.90
52181;DHT22;38158;53.338;6.514;2023-03-11T00:30:10;1.20;99.90
52181;DHT22;38158;53.338;6.514;2023-03-11T00:32:36;1.20;99.90
52181;DHT22;38158;53.338;6.514;2023-03-11T00:35:02;1.40;99.90
52181;DHT22;38158;53.338;6.514;2023-03-11T00:37:28;1.20;99.90
52181;DHT22;38158;53.338;6.514;2023-03-11T00:39:54;1.30;99.90
52181;DHT22;38158;53.338;6.514;2023-03-11T00:42:20;1.30;99.90
52181;DHT22;38158;53.338;6.514;2023-03-11T00:44:45;1.30;99.90
52181;DHT22;38158;53.338;6.514;2023-03-11T00:47:11;1.30;99.90
52181;DHT22;38158;53.338;6.514;2023-03-11T00:49:37;1.30;99.90
52181;DHT22;38158;53.338;6.514;2023-03-11T00:52:03;1.30;99.90
52181;DHT22;38158;53.338;6.514;2023-03-11T00:54:29;1.30;99.90
52181;DHT22;38158;53.338;6.514;2023-03-11T00:56:55;1.40;99.90
52181;DHT22;38158;53.338;6.514;2023-03-11T00:59:21;1.70;99.90
52181;DHT22;38158;53.338;6.514;2023-03-11T01:01:47;1.20;99.90
52181;DHT22;38158;53.338;6.514;2023-03-11T01:04:12;1.20;99.90
52181;DHT22;38158;53.338;6.514;2023-03-11T01:06:38;2.30;99.90
52181;DHT22;38158;53.338;6.514;2023-03-11T01:09:04;1.30;99.90
52181;DHT22;38158;53.338;6.514;2023-03-11T01:11:30;1.30;99.90
52181;DHT22;38158;53.338;6.514;2023-03-11T01:13:56;1.30;99.90
52181;DHT22;38158;53.338;6.514;2023-03-11T01:16:22;2.20;99.90
52181;DHT22;38158;53.338;6.514;2023-03-11T01:18:48;1.20;99.90
52181;DHT22;38158;53.338;6.514;2023-03-11T01:21:14;1.40;99.90
52181;DHT22;38158;53.338;6.514;2023-03-11T01:23:40;1.30;99.90
52181;DHT22;38158;53.338;6.514;2023-03-11T01:26:06;1.70;99.90
52181;DHT22;38158;53.338;6.514;2023-03-11T01:28:32;1.20;99.90
52181;DHT22;38158;53.338;6.514;2023-03-11T01:30:58;1.10;99.90
52181;DHT22;38158;53.338;6.514;2023-03-11T01:33:24;1.10;99.90
52181;DHT22;38158;53.338;6.514;2023-03-11T01:35:49;1.00;99.90
52181;DHT22;38158;53.338;6.514;2023-03-11T01:38:15;1.10;99.90
52181;DHT22;38158;53.338;6.514;2023-03-11T01:40:50;2.30;99.90
52181;DHT22;38158;53.338;6.514;2023-03-11T01:47:26;0.90;99.90
52181;DHT22;38158;53.338;6.514;2023-03-11T01:49:11;0.90;99.90
52181;DHT22;38158;53.338;6.514;2023-03-11T01:51:42;1.10;99.90
52181;DHT22;38158;53.338;6.514;2023-03-11T01:54:24;0.90;99.90
52181;DHT22;38158;53.338;6.514;2023-03-11T01:56:50;0.90;99.90
52181;DHT22;38158;53.338;6.514;2023-03-11T01:59:20;0.90;99.90
52181;DHT22;38158;53.338;6.514;2023-03-11T02:02:08;0.90;99.90
52181;DHT22;38158;53.338;6.514;2023-03-11T02:04:36;1.10;99.90
52181;DHT22;38158;53.338;6.514;2023-03-11T02:07:02;0.90;99.90
52181;DHT22;38158;53.338;6.514;2023-03-11T02:09:28;0.90;99.90
52181;DHT22;38158;53.338;6.514;2023-03-11T02:11:55;1.90;99.90
52181;DHT22;38158;53.338;6.514;2023-03-11T02:14:22;1.10;99.90
52181;DHT22;38158;53.338;6.514;2023-03-11T02:16:48;1.40;99.90
52181;DHT22;38158;53.338;6.514;2023-03-11T02:21:49;1.00;99.90
52181;DHT22;38158;53.338;6.514;2023-03-11T02:24:24;1.20;99.90
52181;DHT22;38158;53.338;6.514;2023-03-11T02:27:06;0.90;99.90
52181;DHT22;38158;53.338;6.514;2023-03-11T02:29:33;0.80;99.90
52181;DHT22;38158;53.338;6.514;2023-03-11T02:32:02;0.80;99.90
52181;DHT22;38158;53.338;6.514;2023-03-11T02:34:34;0.70;99.90
52181;DHT22;38158;53.338;6.514;2023-03-11T02:37:03;0.70;99.90
52181;DHT22;38158;53.338;6.514;2023-03-11T02:39:34;0.70;99.90
52181;DHT22;38158;53.338;6.514;2023-03-11T02:42:14;0.70;99.90
52181;DHT22;38158;53.338;6.514;2023-03-11T02:44:43;0.70;99.90
52181;DHT22;38158;53.338;6.514;2023-03-11T02:47:10;0.80;99.90
52181;DHT22;38158;53.338;6.514;2023-03-11T02:49:36;1.20;99.90
52181;DHT22;38158;53.338;6.514;2023-03-11T02:52:03;0.90;99.90
52181;DHT22;38158;53.338;6.514;2023-03-11T02:54:29;0.90;99.90
52181;DHT22;38158;53.338;6.514;2023-03-11T02:56:55;0.80;99.90
52181;DHT22;38158;53.338;6.514;2023-03-11T02:59:20;0.80;99.90
52181;DHT22;38158;53.338;6.514;2023-03-11T03:01:46;0.70;99.90
52181;DHT22;38158;53.338;6.514;2023-03-11T03:04:12;1.10;99.90
52181;DHT22;38158;53.338;6.514;2023-03-11T03:06:37;0.70;99.90
52181;DHT22;38158;53.338;6.514;2023-03-11T03:09:03;0.70;99.90
52181;DHT22;38158;53.338;6.514;2023-03-11T03:11:29;0.60;99.90
52181;DHT22;38158;53.338;6.514;2023-03-11T03:13:55;1.30;99.90
52181;DHT22;38158;53.338;6.514;2023-03-11T03:16:20;0.90;99.90
52181;DHT22;38158;53.338;6.514;2023-03-11T03:18:46;0.50;99.90
52181;DHT22;38158;53.338;6.514;2023-03-11T03:21:12;1.70;99.90
52181;DHT22;38158;53.338;6.514;2023-03-11T03:23:38;0.60;99.90
52181;DHT22;38158;53.338;6.514;2023-03-11T03:26:04;0.60;99.90
52181;DHT22;38158;53.338;6.514;2023-03-11T03:28:30;1.00;99.90
52181;DHT22;38158;53.338;6.514;2023-03-11T03:31:07;1.00;99.90
52181;DHT22;38158;53.338;6.514;2023-03-11T03:33:33;0.60;99.90
52181;DHT22;38158;53.338;6.514;2023-03-11T03:35:59;0.60;99.90
52181;DHT22;38158;53.338;6.514;2023-03-11T03:38:25;0.90;99.90
52181;DHT22;38158;53.338;6.514;2023-03-11T03:40:50;0.60;99.90
52181;DHT22;38158;53.338;6.514;2023-03-11T03:43:16;0.50;99.90
52181;DHT22;38158;53.338;6.514;2023-03-11T03:45:42;0.50;99.90
52181;DHT22;38158;53.338;6.514;2023-03-11T03:48:07;1.70;99.90
52181;DHT22;38158;53.338;6.514;2023-03-11T03:50:33;1.30;99.90
52181;DHT22;38158;53.338;6.514;2023-03-11T03:52:59;0.50;99.90
52181;DHT22;38158;53.338;6.514;2023-03-11T03:55:24;0.60;99.90
52181;DHT22;38158;53.338;6.514;2023-03-11T03:57:50;0.60;99.90
52181;DHT22;38158;53.338;6.514;2023-03-11T04:00:16;0.50;99.90
52181;DHT22;38158;53.338;6.514;2023-03-11T04:02:42;0.50;99.90
52181;DHT22;38158;53.338;6.514;2023-03-11T04:05:08;0.50;99.90
52181;DHT22;38158;53.338;6.514;2023-03-11T04:07:34;0.50;99.90
52181;DHT22;38158;53.338;6.514;2023-03-11T04:10:00;0.90;99.90
52181;DHT22;38158;53.338;6.514;2023-03-11T04:12:26;0.40;99.90
52181;DHT22;38158;53.338;6.514;2023-03-11T04:14:52;0.40;99.90
52181;DHT22;38158;53.338;6.514;2023-03-11T04:17:17;0.30;99.90
52181;DHT22;38158;53.338;6.514;2023-03-11T04:19:43;1.00;99.90
52181;DHT22;38158;53.338;6.514;2023-03-11T04:22:09;0.50;99.90
52181;DHT22;38158;53.338;6.514;2023-03-11T04:24:35;0.30;99.90
52181;DHT22;38158;53.338;6.514;2023-03-11T04:27:01;0.40;99.90
52181;DHT22;38158;53.338;6.514;2023-03-11T04:29:26;0.40;99.90
52181;DHT22;38158;53.338;6.514;2023-03-11T04:31:52;0.50;99.90
52181;DHT22;38158;53.338;6.514;2023-03-11T04:34:18;0.40;99.90
52181;DHT22;38158;53.338;6.514;2023-03-11T04:36:44;0.30;99.90
52181;DHT22;38158;53.338;6.514;2023-03-11T04:39:10;0.30;99.90
52181;DHT22;38158;53.338;6.514;2023-03-11T04:41:36;0.30;99.90
52181;DHT22;38158;53.338;6.514;2023-03-11T04:44:02;0.40;99.90
52181;DHT22;38158;53.338;6.514;2023-03-11T04:46:27;0.60;99.90
52181;DHT22;38158;53.338;6.514;2023-03-11T04:48:53;1.70;99.90
52181;DHT22;38158;53.338;6.514;2023-03-11T04:51:19;0.30;99.90
52181;DHT22;38158;53.338;6.514;2023-03-11T04:53:44;0.30;99.90
52181;DHT22;38158;53.338;6.514;2023-03-11T04:56:10;0.20;99.90
52181;DHT22;38158;53.338;6.514;2023-03-11T04:58:36;0.40;99.90
52181;DHT22;38158;53.338;6.514;2023-03-11T05:01:02;0.20;99.90
52181;DHT22;38158;53.338;6.514;2023-03-11T05:03:27;0.20;99.90
52181;DHT22;38158;53.338;6.514;2023-03-11T05:05:53;0.20;99.90
52181;DHT22;38158;53.338;6.514;2023-03-11T05:08:22;0.30;99.90
52181;DHT22;38158;53.338;6.514;2023-03-11T05:10:49;0.50;99.90
52181;DHT22;38158;53.338;6.514;2023-03-11T05:13:15;0.20;99.90
52181;DHT22;38158;53.338;6.514;2023-03-11T05:15:41;0.20;99.90
52181;DHT22;38158;53.338;6.514;2023-03-11T05:18:07;0.10;99.90
52181;DHT22;38158;53.338;6.514;2023-03-11T05:20:32;0.20;99.90
52181;DHT22;38158;53.338;6.514;2023-03-11T05:22:58;0.10;99.90
52181;DHT22;38158;53.338;6.514;2023-03-11T05:25:24;0.00;99.90
52181;DHT22;38158;53.338;6.514;2023-03-11T05:27:50;0.10;99.90
52181;DHT22;38158;53.338;6.514;2023-03-11T05:30:15;-0.10;99.90
52181;DHT22;38158;53.338;6.514;2023-03-11T05:32:41;-0.10;99.90
52181;DHT22;38158;53.338;6.514;2023-03-11T05:35:07;-0.10;99.90
52181;DHT22;38158;53.338;6.514;2023-03-11T05:37:33;-0.10;99.90
52181;DHT22;38158;53.338;6.514;2023-03-11T05:40:00;-0.10;99.90
52181;DHT22;38158;53.338;6.514;2023-03-11T05:42:25;-0.20;99.90
52181;DHT22;38158;53.338;6.514;2023-03-11T05:44:52;0.30;99.90
52181;DHT22;38158;53.338;6.514;2023-03-11T05:47:18;0.10;99.90
52181;DHT22;38158;53.338;6.514;2023-03-11T05:49:46;-0.30;99.90
52181;DHT22;38158;53.338;6.514;2023-03-11T05:52:13;-0.30;99.90
52181;DHT22;38158;53.338;6.514;2023-03-11T05:54:38;-0.30;99.90
52181;DHT22;38158;53.338;6.514;2023-03-11T05:57:04;-0.40;99.90
52181;DHT22;38158;53.338;6.514;2023-03-11T05:59:30;-0.20;99.90
52181;DHT22;38158;53.338;6.514;2023-03-11T06:01:57;0.60;99.90
52181;DHT22;38158;53.338;6.514;2023-03-11T06:04:23;-0.40;99.90
52181;DHT22;38158;53.338;6.514;2023-03-11T06:06:49;-0.40;99.90
52181;DHT22;38158;53.338;6.514;2023-03-11T06:09:15;0.50;99.90
52181;DHT22;38158;53.338;6.514;2023-03-11T06:11:41;-0.40;99.90
52181;DHT22;38158;53.338;6.514;2023-03-11T06:14:11;-0.40;99.90
52181;DHT22;38158;53.338;6.514;2023-03-11T06:16:37;-0.40;99.90
52181;DHT22;38158;53.338;6.514;2023-03-11T06:19:03;-0.40;99.90
52181;DHT22;38158;53.338;6.514;2023-03-11T06:21:29;0.40;99.90
52181;DHT22;38158;53.338;6.514;2023-03-11T06:23:55;-0.10;99.90
52181;DHT22;38158;53.338;6.514;2023-03-11T06:26:22;-0.60;99.90
52181;DHT22;38158;53.338;6.514;2023-03-11T06:28:49;-0.40;99.90
52181;DHT22;38158;53.338;6.514;2023-03-11T06:31:18;0.30;99.90
52181;DHT22;38158;53.338;6.514;2023-03-11T06:33:45;0.00;99.90
52181;DHT22;38158;53.338;6.514;2023-03-11T06:36:14;-0.70;99.90
52181;DHT22;38158;53.338;6.514;2023-03-11T06:38:40;0.80;99.90
52181;DHT22;38158;53.338;6.514;2023-03-11T06:41:06;-0.70;99.90
52181;DHT22;38158;53.338;6.514;2023-03-11T06:43:33;-0.30;99.90
52181;DHT22;38158;53.338;6.514;2023-03-11T06:46:00;-0.80;99.90
52181;DHT22;38158;53.338;6.514;2023-03-11T06:48:26;-0.80;99.90
52181;DHT22;38158;53.338;6.514;2023-03-11T06:51:01;0.30;99.90
52181;DHT22;38158;53.338;6.514;2023-03-11T06:53:28;-0.80;99.90
52181;DHT22;38158;53.338;6.514;2023-03-11T06:56:03;-0.50;99.90
52181;DHT22;38158;53.338;6.514;2023-03-11T06:58:30;-0.90;99.90
52181;DHT22;38158;53.338;6.514;2023-03-11T07:01:03;-0.40;99.90
52181;DHT22;38158;53.338;6.514;2023-03-11T07:03:29;-0.70;99.90
52181;DHT22;38158;53.338;6.514;2023-03-11T07:05:56;-0.70;99.90
52181;DHT22;38158;53.338;6.514;2023-03-11T07:08:22;-0.60;99.90
52181;DHT22;38158;53.338;6.514;2023-03-11T07:11:02;-0.60;99.90
52181;DHT22;38158;53.338;6.514;2023-03-11T07:13:29;-0.20;99.90
52181;DHT22;38158;53.338;6.514;2023-03-11T07:16:37;-0.50;99.90
52181;DHT22;38158;53.338;6.514;2023-03-11T07:18:55;-0.60;99.90
52181;DHT22;38158;53.338;6.514;2023-03-11T07:21:22;-0.50;99.90
52181;DHT22;38158;53.338;6.514;2023-03-11T07:23:51;-0.50;99.90
52181;DHT22;38158;53.338;6.514;2023-03-11T07:26:17;-0.50;99.90
52181;DHT22;38158;53.338;6.514;2023-03-11T07:28:43;0.40;99.90
52181;DHT22;38158;53.338;6.514;2023-03-11T07:31:15;-0.40;99.90
52181;DHT22;38158;53.338;6.514;2023-03-11T07:33:41;-0.20;99.90
52181;DHT22;38158;53.338;6.514;2023-03-11T07:36:19;-0.30;99.90
52181;DHT22;38158;53.338;6.514;2023-03-11T07:38:45;-0.20;99.90
52181;DHT22;38158;53.338;6.514;2023-03-11T07:41:12;-0.20;99.90
52181;DHT22;38158;53.338;6.514;2023-03-11T07:43:38;0.70;99.90
52181;DHT22;38158;53.338;6.514;2023-03-11T07:46:07;-0.10;99.90
52181;DHT22;38158;53.338;6.514;2023-03-11T07:48:34;0.90;99.90
52181;DHT22;38158;53.338;6.514;2023-03-11T07:51:23;1.30;99.90
52181;DHT22;38158;53.338;6.514;2023-03-11T07:53:52;0.30;99.90
52181;DHT22;38158;53.338;6.514;2023-03-11T07:56:18;0.20;99.90
52181;DHT22;38158;53.338;6.514;2023-03-11T07:58:45;0.70;99.90
52181;DHT22;38158;53.338;6.514;2023-03-11T08:01:12;0.80;99.90
52181;DHT22;38158;53.338;6.514;2023-03-11T08:03:39;1.70;99.90
52181;DHT22;38158;53.338;6.514;2023-03-11T08:06:20;0.60;99.90
52181;DHT22;38158;53.338;6.514;2023-03-11T08:08:47;0.70;99.90
52181;DHT22;38158;53.338;6.514;2023-03-11T08:11:13;1.10;99.90
52181;DHT22;38158;53.338;6.514;2023-03-11T08:13:40;1.00;99.90
52181;DHT22;38158;53.338;6.514;2023-03-11T08:16:07;0.90;99.90
52181;DHT22;38158;53.338;6.514;2023-03-11T08:18:33;1.00;99.90
52181;DHT22;38158;53.338;6.514;2023-03-11T08:21:07;2.00;99.90
52181;DHT22;38158;53.338;6.514;2023-03-11T08:23:33;1.20;99.90
52181;DHT22;38158;53.338;6.514;2023-03-11T08:26:03;1.20;99.90
52181;DHT22;38158;53.338;6.514;2023-03-11T08:28:29;1.30;99.90
52181;DHT22;38158;53.338;6.514;2023-03-11T08:30:54;1.40;99.90
52181;DHT22;38158;53.338;6.514;2023-03-11T08:33:20;1.40;99.90
52181;DHT22;38158;53.338;6.514;2023-03-11T08:35:46;1.50;99.90
52181;DHT22;38158;53.338;6.514;2023-03-11T08:38:11;1.60;99.90
52181;DHT22;38158;53.338;6.514;2023-03-11T08:40:37;2.40;99.90
52181;DHT22;38158;53.338;6.514;2023-03-11T08:43:03;1.80;99.90
52181;DHT22;38158;53.338;6.514;2023-03-11T08:45:29;1.80;99.90
52181;DHT22;38158;53.338;6.514;2023-03-11T08:47:54;1.90;99.90
52181;DHT22;38158;53.338;6.514;2023-03-11T08:50:20;2.00;99.90
52181;DHT22;38158;53.338;6.514;2023-03-11T08:52:46;2.10;99.90
52181;DHT22;38158;53.338;6.514;2023-03-11T08:55:13;2.20;99.90
52181;DHT22;38158;53.338;6.514;2023-03-11T08:57:41;2.30;99.90
52181;DHT22;38158;53.338;6.514;2023-03-11T09:00:07;2.30;99.90
52181;DHT22;38158;53.338;6.514;2023-03-11T09:02:33;2.40;99.90
52181;DHT22;38158;53.338;6.514;2023-03-11T09:04:59;2.60;99.90
52181;DHT22;38158;53.338;6.514;2023-03-11T09:07:25;2.50;99.90
52181;DHT22;38158;53.338;6.514;2023-03-11T09:09:51;3.10;99.90
52181;DHT22;38158;53.338;6.514;2023-03-11T09:12:16;2.60;99.90
52181;DHT22;38158;53.338;6.514;2023-03-11T09:14:42;2.80;99.90
52181;DHT22;38158;53.338;6.514;2023-03-11T09:17:09;2.80;99.90
52181;DHT22;38158;53.338;6.514;2023-03-11T09:19:36;2.90;99.90
52181;DHT22;38158;53.338;6.514;2023-03-11T09:22:03;2.90;99.90
52181;DHT22;38158;53.338;6.514;2023-03-11T09:24:31;3.00;99.90
52181;DHT22;38158;53.338;6.514;2023-03-11T09:26:57;3.10;99.90
52181;DHT22;38158;53.338;6.514;2023-03-11T09:29:23;3.10;99.90
52181;DHT22;38158;53.338;6.514;2023-03-11T09:31:49;3.20;99.90
52181;DHT22;38158;53.338;6.514;2023-03-11T09:34:14;3.30;99.90
52181;DHT22;38158;53.338;6.514;2023-03-11T09:36:41;3.40;99.90
52181;DHT22;38158;53.338;6.514;2023-03-11T09:39:07;3.50;99.90
52181;DHT22;38158;53.338;6.514;2023-03-11T09:41:53;3.60;99.90
52181;DHT22;38158;53.338;6.514;2023-03-11T09:47:33;3.80;99.90
52181;DHT22;38158;53.338;6.514;2023-03-11T09:55:54;4.10;99.90
52181;DHT22;38158;53.338;6.514;2023-03-11T10:03:50;4.30;99.90
52181;DHT22;38158;53.338;6.514;2023-03-11T10:06:22;4.60;99.90
52181;DHT22;38158;53.338;6.514;2023-03-11T10:14:34;4.60;99.90
52181;DHT22;38158;53.338;6.514;2023-03-11T10:19:52;4.70;99.90
52181;DHT22;38158;53.338;6.514;2023-03-11T10:25:16;4.70;99.90
52181;DHT22;38158;53.338;6.514;2023-03-11T10:27:53;4.80;99.90
52181;DHT22;38158;53.338;6.514;2023-03-11T10:30:29;4.90;99.90
52181;DHT22;38158;53.338;6.514;2023-03-11T10:35:55;5.00;99.90
52181;DHT22;38158;53.338;6.514;2023-03-11T10:38:30;5.10;99.90
52181;DHT22;38158;53.338;6.514;2023-03-11T10:41:02;5.60;99.90
52181;DHT22;38158;53.338;6.514;2023-03-11T10:43:51;5.30;99.90
52181;DHT22;38158;53.338;6.514;2023-03-11T10:46:25;5.40;99.90
52181;DHT22;38158;53.338;6.514;2023-03-11T10:48:51;5.40;99.90
52181;DHT22;38158;53.338;6.514;2023-03-11T10:51:22;5.40;99.90
52181;DHT22;38158;53.338;6.514;2023-03-11T10:53:51;5.40;99.90
52181;DHT22;38158;53.338;6.514;2023-03-11T10:56:38;5.40;99.90
52181;DHT22;38158;53.338;6.514;2023-03-11T10:59:27;5.40;99.90
52181;DHT22;38158;53.338;6.514;2023-03-11T11:01:58;5.40;99.90
52181;DHT22;38158;53.338;6.514;2023-03-11T11:04:28;5.50;99.90
52181;DHT22;38158;53.338;6.514;2023-03-11T11:06:54;5.60;99.90
52181;DHT22;38158;53.338;6.514;2023-03-11T11:09:22;5.60;99.90
52181;DHT22;38158;53.338;6.514;2023-03-11T11:14:48;5.80;99.90
52181;DHT22;38158;53.338;6.514;2023-03-11T11:17:29;5.80;99.90
52181;DHT22;38158;53.338;6.514;2023-03-11T11:19:56;5.80;99.90
52181;DHT22;38158;53.338;6.514;2023-03-11T11:22:23;6.60;99.90
52181;DHT22;38158;53.338;6.514;2023-03-11T11:24:54;5.90;99.90
52181;DHT22;38158;53.338;6.514;2023-03-11T11:27:27;6.00;99.90
52181;DHT22;38158;53.338;6.514;2023-03-11T11:30:14;6.10;99.90
52181;DHT22;38158;53.338;6.514;2023-03-11T11:32:41;6.20;99.90
52181;DHT22;38158;53.338;6.514;2023-03-11T11:35:15;6.20;99.90
52181;DHT22;38158;53.338;6.514;2023-03-11T11:37:44;6.30;99.90
52181;DHT22;38158;53.338;6.514;2023-03-11T11:45:58;6.30;99.90
52181;DHT22;38158;53.338;6.514;2023-03-11T11:48:43;6.30;99.90
52181;DHT22;38158;53.338;6.514;2023-03-11T11:51:20;6.30;99.90
52181;DHT22;38158;53.338;6.514;2023-03-11T11:54:10;6.40;99.90
52181;DHT22;38158;53.338;6.514;2023-03-11T11:56:39;6.50;99.90
52181;DHT22;38158;53.338;6.514;2023-03-11T11:59:18;6.50;99.90
52181;DHT22;38158;53.338;6.514;2023-03-11T12:07:39;6.50;99.90
52181;DHT22;38158;53.338;6.514;2023-03-11T12:10:32;6.50;99.90
52181;DHT22;38158;53.338;6.514;2023-03-11T12:13:23;6.50;99.90
52181;DHT22;38158;53.338;6.514;2023-03-11T12:25:11;6.80;99.90
52181;DHT22;38158;53.338;6.514;2023-03-11T12:27:24;6.90;99.90
52181;DHT22;38158;53.338;6.514;2023-03-11T12:29:55;7.10;99.90
52181;DHT22;38158;53.338;6.514;2023-03-11T12:32:28;7.10;99.90
52181;DHT22;38158;53.338;6.514;2023-03-11T12:35:01;7.20;99.90
52181;DHT22;38158;53.338;6.514;2023-03-11T12:37:29;7.20;99.90
52181;DHT22;38158;53.338;6.514;2023-03-11T12:39:55;7.20;99.90
52181;DHT22;38158;53.338;6.514;2023-03-11T12:42:22;7.20;99.90
52181;DHT22;38158;53.338;6.514;2023-03-11T12:44:51;7.30;99.90
52181;DHT22;38158;53.338;6.514;2023-03-11T12:47:23;7.30;99.90
52181;DHT22;38158;53.338;6.514;2023-03-11T12:49:54;7.40;99.90
52181;DHT22;38158;53.338;6.514;2023-03-11T12:52:22;7.40;99.90
52181;DHT22;38158;53.338;6.514;2023-03-11T13:14:22;7.60;99.90
52181;DHT22;38158;53.338;6.514;2023-03-11T13:16:48;7.30;99.90
52181;DHT22;38158;53.338;6.514;2023-03-11T13:21:55;7.00;99.90
52181;DHT22;38158;53.338;6.514;2023-03-11T13:38:40;6.60;99.90
52181;DHT22;38158;53.338;6.514;2023-03-11T13:41:14;6.60;99.90
52181;DHT22;38158;53.338;6.514;2023-03-11T13:43:49;6.70;99.90
52181;DHT22;38158;53.338;6.514;2023-03-11T13:46:34;6.90;99.90
52181;DHT22;38158;53.338;6.514;2023-03-11T13:49:51;7.10;99.90
52181;DHT22;38158;53.338;6.514;2023-03-11T13:51:56;7.30;99.90
52181;DHT22;38158;53.338;6.514;2023-03-11T13:54:47;7.40;99.90
52181;DHT22;38158;53.338;6.514;2023-03-11T13:57:36;7.30;99.90
52181;DHT22;38158;53.338;6.514;2023-03-11T14:00:13;7.20;99.90
52181;DHT22;38158;53.338;6.514;2023-03-11T14:03:00;7.10;99.90
52181;DHT22;38158;53.338;6.514;2023-03-11T14:05:33;7.10;99.90
52181;DHT22;38158;53.338;6.514;2023-03-11T14:13:41;7.00;99.90
52181;DHT22;38158;53.338;6.514;2023-03-11T14:16:07;7.00;99.90
52181;DHT22;38158;53.338;6.514;2023-03-11T14:18:35;7.10;99.90
52181;DHT22;38158;53.338;6.514;2023-03-11T14:21:04;7.10;99.90
52181;DHT22;38158;53.338;6.514;2023-03-11T14:23:43;7.10;99.90
52181;DHT22;38158;53.338;6.514;2023-03-11T14:26:14;7.10;99.90
52181;DHT22;38158;53.338;6.514;2023-03-11T14:28:44;7.00;99.90
52181;DHT22;38158;53.338;6.514;2023-03-11T14:31:29;6.90;99.90
52181;DHT22;38158;53.338;6.514;2023-03-11T14:34:02;6.60;99.90
52181;DHT22;38158;53.338;6.514;2023-03-11T14:36:48;6.50;99.90
52181;DHT22;38158;53.338;6.514;2023-03-11T14:39:31;6.40;99.90
52181;DHT22;38158;53.338;6.514;2023-03-11T14:42:16;6.20;99.90
52181;DHT22;38158;53.338;6.514;2023-03-11T14:47:31;6.10;99.90
52181;DHT22;38158;53.338;6.514;2023-03-11T14:49:58;6.00;99.90
52181;DHT22;38158;53.338;6.514;2023-03-11T14:52:46;6.00;99.90
52181;DHT22;38158;53.338;6.514;2023-03-11T14:55:16;6.00;99.90
52181;DHT22;38158;53.338;6.514;2023-03-11T14:57:51;5.90;99.90
52181;DHT22;38158;53.338;6.514;2023-03-11T15:00:23;5.90;99.90
52181;DHT22;38158;53.338;6.514;2023-03-11T15:03:29;5.80;99.90
52181;DHT22;38158;53.338;6.514;2023-03-11T15:05:59;5.60;99.90
52181;DHT22;38158;53.338;6.514;2023-03-11T15:08:30;5.50;99.90
52181;DHT22;38158;53.338;6.514;2023-03-11T15:13:36;5.20;99.90
52181;DHT22;38158;53.338;6.514;2023-03-11T15:16:19;5.00;99.90
52181;DHT22;38158;53.338;6.514;2023-03-11T15:18:46;4.80;99.90
52181;DHT22;38158;53.338;6.514;2023-03-11T15:21:15;4.60;99.90
52181;DHT22;38158;53.338;6.514;2023-03-11T15:23:56;4.70;99.90
52181;DHT22;38158;53.338;6.514;2023-03-11T15:26:26;4.30;99.90
52181;DHT22;38158;53.338;6.514;2023-03-11T15:29:13;4.30;99.90
52181;DHT22;38158;53.338;6.514;2023-03-11T15:31:40;4.30;99.90
52181;DHT22;38158;53.338;6.514;2023-03-11T15:34:18;4.30;99.90
52181;DHT22;38158;53.338;6.514;2023-03-11T15:42:08;4.50;99.90
52181;DHT22;38158;53.338;6.514;2023-03-11T15:45:09;4.60;99.90
52181;DHT22;38158;53.338;6.514;2023-03-11T15:47:36;4.70;99.90
52181;DHT22;38158;53.338;6.514;2023-03-11T15:52:41;4.80;99.90
52181;DHT22;38158;53.338;6.514;2023-03-11T15:55:08;5.00;99.90
52181;DHT22;38158;53.338;6.514;2023-03-11T15:57:34;4.90;99.90
52181;DHT22;38158;53.338;6.514;2023-03-11T16:00:00;5.00;99.90
52181;DHT22;38158;53.338;6.514;2023-03-11T16:02:28;5.00;99.90
52181;DHT22;38158;53.338;6.514;2023-03-11T16:04:55;5.10;99.90
52181;DHT22;38158;53.338;6.514;2023-03-11T16:07:22;5.10;99.90
52181;DHT22;38158;53.338;6.514;2023-03-11T16:09:47;5.10;99.90
52181;DHT22;38158;53.338;6.514;2023-03-11T16:12:14;5.00;99.90
52181;DHT22;38158;53.338;6.514;2023-03-11T16:14:40;4.90;99.90
52181;DHT22;38158;53.338;6.514;2023-03-11T16:17:06;4.90;99.90
52181;DHT22;38158;53.338;6.514;2023-03-11T16:19:31;4.80;99.90
52181;DHT22;38158;53.338;6.514;2023-03-11T16:21:57;4.80;99.90
52181;DHT22;38158;53.338;6.514;2023-03-11T16:24:24;4.70;99.90
52181;DHT22;38158;53.338;6.514;2023-03-11T16:26:51;4.70;99.90
52181;DHT22;38158;53.338;6.514;2023-03-11T16:29:18;4.70;99.90
52181;DHT22;38158;53.338;6.514;2023-03-11T16:31:44;4.70;99.90
52181;DHT22;38158;53.338;6.514;2023-03-11T16:34:09;4.70;99.90
52181;DHT22;38158;53.338;6.514;2023-03-11T16:36:35;4.60;99.90
52181;DHT22;38158;53.338;6.514;2023-03-11T16:39:01;4.70;99.90
52181;DHT22;38158;53.338;6.514;2023-03-11T16:41:26;4.60;99.90
52181;DHT22;38158;53.338;6.514;2023-03-11T16:43:52;4.60;99.90
52181;DHT22;38158;53.338;6.514;2023-03-11T16:46:18;4.50;99.90
52181;DHT22;38158;53.338;6.514;2023-03-11T16:48:44;4.40;99.90
52181;DHT22;38158;53.338;6.514;2023-03-11T16:51:10;4.30;99.90
52181;DHT22;38158;53.338;6.514;2023-03-11T16:53:35;4.30;99.90
52181;DHT22;38158;53.338;6.514;2023-03-11T16:56:01;4.30;99.90
52181;DHT22;38158;53.338;6.514;2023-03-11T16:58:27;4.20;99.90
52181;DHT22;38158;53.338;6.514;2023-03-11T17:00:53;4.20;99.90
52181;DHT22;38158;53.338;6.514;2023-03-11T17:03:18;4.10;99.90
52181;DHT22;38158;53.338;6.514;2023-03-11T17:05:45;4.00;99.90
52181;DHT22;38158;53.338;6.514;2023-03-11T17:08:11;4.00;99.90
52181;DHT22;38158;53.338;6.514;2023-03-11T17:10:40;4.00;99.90
52181;DHT22;38158;53.338;6.514;2023-03-11T17:13:08;3.90;99.90
52181;DHT22;38158;53.338;6.514;2023-03-11T17:15:34;3.90;99.90
52181;DHT22;38158;53.338;6.514;2023-03-11T17:18:00;3.80;99.90
52181;DHT22;38158;53.338;6.514;2023-03-11T17:20:26;3.80;99.90
52181;DHT22;38158;53.338;6.514;2023-03-11T17:22:52;3.70;99.90
52181;DHT22;38158;53.338;6.514;2023-03-11T17:25:18;4.00;99.90
52181;DHT22;38158;53.338;6.514;2023-03-11T17:27:44;3.60;99.90
52181;DHT22;38158;53.338;6.514;2023-03-11T17:30:11;3.50;99.90
52181;DHT22;38158;53.338;6.514;2023-03-11T17:32:37;3.50;99.90
52181;DHT22;38158;53.338;6.514;2023-03-11T17:35:03;3.40;99.90
52181;DHT22;38158;53.338;6.514;2023-03-11T17:37:30;3.30;99.90
52181;DHT22;38158;53.338;6.514;2023-03-11T17:39:55;3.20;99.90
52181;DHT22;38158;53.338;6.514;2023-03-11T17:42:21;3.20;99.90
52181;DHT22;38158;53.338;6.514;2023-03-11T17:44:47;3.10;99.90
52181;DHT22;38158;53.338;6.514;2023-03-11T17:47:13;3.10;99.90
52181;DHT22;38158;53.338;6.514;2023-03-11T17:49:39;3.00;99.90